Time;durP1;ratioP1;P1;durP2;ratioP2;P2;SDS_P1;SDS_P2;PMS_P1;PMS_P2;Temp;Humidity;BMP_temperature;BMP_pressure;BME280_temperature;BME280_humidity;BME280_pressure;Samples;Min_cycle;Max_cycle;Signal;HPM_P1;HPM_P2
2024/03/26 00:02:18;;;;;;;3.47;1.95;;;7.10;99.90;;;;;;4959912;28;20073;-60
2024/03/26 00:04:44;;;;;;;3.30;1.83;;;7.10;99.90;;;;;;4959810;28;20641;-57
2024/03/26 00:07:10;;;;;;;3.13;1.67;;;7.10;99.90;;;;;;4964201;28;20129;-59
2024/03/26 00:09:36;;;;;;;1.50;1.20;;;7.20;99.90;;;;;;4964890;28;20369;-60
2024/03/26 00:12:01;;;;;;;3.72;1.70;;;7.20;99.90;;;;;;4956983;28;20055;-60
2024/03/26 00:14:27;;;;;;;3.40;2.05;;;7.20;99.90;;;;;;4962140;28;20062;-60
2024/03/26 00:16:53;;;;;;;5.18;1.77;;;7.10;99.90;;;;;;4965723;28;20109;-60
2024/03/26 00:19:19;;;;;;;4.05;1.60;;;7.20;99.90;;;;;;4966463;28;20125;-59
2024/03/26 00:21:44;;;;;;;4.88;1.75;;;7.20;99.90;;;;;;4966427;28;20042;-60
2024/03/26 00:24:10;;;;;;;5.15;1.73;;;7.30;99.90;;;;;;4959614;28;20053;-60
2024/03/26 00:26:36;;;;;;;2.50;1.65;;;7.30;99.90;;;;;;4963637;28;20419;-60
2024/03/26 00:29:03;;;;;;;1.73;1.23;;;7.30;99.90;;;;;;4966224;28;20046;-59
2024/03/26 00:31:33;;;;;;;2.67;1.48;;;7.30;99.90;;;;;;4960195;28;20057;-57
2024/03/26 00:33:59;;;;;;;;;;;7.30;99.90;;;;;;4977214;28;20069;-60
2024/03/26 00:36:26;;;;;;;3.40;1.70;;;7.40;99.90;;;;;;4965827;28;19972;-57
2024/03/26 00:38:52;;;;;;;3.53;1.92;;;7.40;99.90;;;;;;4962570;28;20047;-59
2024/03/26 00:41:17;;;;;;;3.70;1.40;;;7.40;99.90;;;;;;4960742;28;20054;-60
2024/03/26 00:43:43;;;;;;;4.65;1.80;;;7.40;99.90;;;;;;4959046;28;20054;-59
2024/03/26 00:46:09;;;;;;;2.78;1.52;;;7.40;99.90;;;;;;4961942;28;20052;-60
2024/03/26 00:48:35;;;;;;;3.67;1.77;;;7.30;99.90;;;;;;4961759;28;20459;-60
2024/03/26 00:51:01;;;;;;;3.53;1.90;;;7.40;99.90;;;;;;4943688;28;20082;-59
2024/03/26 00:53:27;;;;;;;4.88;1.77;;;7.40;99.90;;;;;;4960763;28;20054;-60
2024/03/26 00:55:52;;;;;;;3.70;2.00;;;7.40;99.90;;;;;;4963918;28;20105;-60
2024/03/26 00:58:18;;;;;;;2.22;1.63;;;7.40;99.90;;;;;;4964533;28;20050;-59
2024/03/26 01:00:44;;;;;;;1.63;1.35;;;7.50;99.90;;;;;;4960748;28;20097;-58
2024/03/26 01:03:10;;;;;;;5.35;1.77;;;7.50;99.90;;;;;;4963540;28;20503;-60
2024/03/26 01:05:36;;;;;;;3.50;1.92;;;7.50;99.90;;;;;;4960773;28;20062;-59
2024/03/26 01:08:02;;;;;;;4.07;1.65;;;7.50;99.90;;;;;;4963971;28;20058;-59
2024/03/26 01:10:28;;;;;;;3.83;1.58;;;7.50;99.90;;;;;;4960800;28;20054;-59
2024/03/26 01:12:53;;;;;;;3.15;1.50;;;7.50;99.90;;;;;;4962140;28;20053;-60
2024/03/26 01:15:19;;;;;;;3.13;1.50;;;7.50;99.90;;;;;;4961886;28;20055;-59
2024/03/26 01:17:45;;;;;;;1.83;1.30;;;7.50;99.90;;;;;;4959779;28;20050;-60
2024/03/26 01:20:12;;;;;;;5.05;1.40;;;7.50;99.90;;;;;;4955706;28;21885;-60
2024/03/26 01:22:38;;;;;;;3.03;1.20;;;7.50;99.90;;;;;;4956016;28;20053;-59
2024/03/26 01:25:07;;;;;;;3.88;1.20;;;7.50;99.90;;;;;;4960534;28;20089;-60
2024/03/26 01:27:33;;;;;;;1.58;1.10;;;7.50;99.90;;;;;;4963325;28;20674;-59
2024/03/26 01:29:59;;;;;;;2.03;1.30;;;7.50;99.90;;;;;;4959225;28;20101;-60
2024/03/26 01:32:25;;;;;;;4.18;1.33;;;7.50;99.90;;;;;;4970658;28;20046;-59
2024/03/26 01:34:51;;;;;;;5.75;1.90;;;7.50;99.90;;;;;;4969831;28;20138;-60
2024/03/26 01:37:17;;;;;;;2.03;1.45;;;7.50;99.90;;;;;;4962538;28;20082;-58
2024/03/26 01:39:43;;;;;;;2.67;1.00;;;7.60;99.90;;;;;;4962678;28;20506;-59
2024/03/26 01:42:09;;;;;;;1.90;0.90;;;7.60;99.90;;;;;;4955402;28;20054;-60
2024/03/26 01:44:35;;;;;;;3.03;1.30;;;7.60;99.90;;;;;;4948488;28;20051;-60
2024/03/26 01:47:01;;;;;;;3.53;1.00;;;7.60;99.90;;;;;;4959943;28;20075;-59
2024/03/26 01:49:32;;;;;;;3.13;1.08;;;7.60;99.90;;;;;;4966117;28;20053;-60
2024/03/26 01:51:58;;;;;;;1.38;0.80;;;7.70;99.90;;;;;;4957908;28;20054;-60
2024/03/26 01:54:25;;;;;;;2.15;1.08;;;7.70;99.90;;;;;;4958312;28;20047;-60
2024/03/26 01:56:54;;;;;;;1.70;1.13;;;7.60;99.90;;;;;;4959731;28;20431;-60
2024/03/26 01:59:20;;;;;;;3.28;0.95;;;7.70;99.90;;;;;;4961958;28;20047;-60
2024/03/26 02:01:46;;;;;;;3.05;0.98;;;7.70;99.90;;;;;;4957424;28;20055;-60
2024/03/26 02:04:11;;;;;;;3.42;1.10;;;7.70;99.90;;;;;;4963662;28;21402;-60
2024/03/26 02:06:37;;;;;;;1.08;0.90;;;7.80;99.90;;;;;;4959286;28;20062;-60
2024/03/26 02:09:03;;;;;;;0.70;0.70;;;7.80;99.90;;;;;;4962988;28;20071;-60
2024/03/26 02:11:30;;;;;;;1.08;1.00;;;7.90;99.90;;;;;;4960789;28;20696;-60
2024/03/26 02:13:56;;;;;;;3.42;0.93;;;7.90;99.90;;;;;;4961098;28;20429;-60
2024/03/26 02:16:22;;;;;;;2.08;0.93;;;8.00;99.90;;;;;;4961299;28;20082;-60
2024/03/26 02:18:48;;;;;;;1.65;0.93;;;8.00;99.90;;;;;;4964547;28;20372;-58
2024/03/26 02:21:13;;;;;;;1.65;0.90;;;8.00;99.90;;;;;;4963176;28;20050;-59
2024/03/26 02:23:39;;;;;;;2.45;1.10;;;8.00;99.90;;;;;;4974834;28;20643;-59
2024/03/26 02:26:05;;;;;;;3.55;1.20;;;8.00;99.90;;;;;;4955282;28;20047;-59
2024/03/26 02:28:31;;;;;;;3.80;1.17;;;8.00;99.90;;;;;;4962046;28;20106;-60
2024/03/26 02:30:56;;;;;;;2.85;1.40;;;8.00;99.90;;;;;;4960681;28;20799;-60
2024/03/26 02:33:22;;;;;;;2.70;1.45;;;8.00;99.90;;;;;;4962654;28;20113;-58
2024/03/26 02:35:48;;;;;;;2.45;1.73;;;7.90;99.90;;;;;;4964948;28;20498;-60
2024/03/26 02:38:14;;;;;;;2.97;1.70;;;7.90;99.90;;;;;;4961954;28;20061;-59
2024/03/26 02:40:39;;;;;;;4.95;1.90;;;7.80;99.90;;;;;;4974043;28;20101;-60
2024/03/26 02:43:06;;;;;;;3.90;1.60;;;7.80;99.90;;;;;;4967802;28;20067;-59
2024/03/26 02:45:31;;;;;;;4.15;1.67;;;7.70;99.90;;;;;;4965003;28;20051;-59
2024/03/26 02:47:57;;;;;;;3.08;1.83;;;7.70;99.90;;;;;;4964423;28;20096;-59
2024/03/26 02:50:23;;;;;;;3.55;1.70;;;7.70;99.90;;;;;;4971574;28;20137;-60
2024/03/26 02:52:49;;;;;;;4.20;1.75;;;7.70;99.90;;;;;;4971480;28;20579;-60
2024/03/26 02:55:14;;;;;;;8.07;1.90;;;7.60;99.90;;;;;;4961623;28;20061;-57
2024/03/26 02:57:40;;;;;;;3.75;1.48;;;7.50;99.90;;;;;;4966578;28;20104;-59
2024/03/26 03:00:07;;;;;;;2.60;1.80;;;7.60;99.90;;;;;;4962923;28;20522;-59
2024/03/26 03:02:33;;;;;;;5.43;1.67;;;7.60;99.90;;;;;;4966321;28;20063;-59
2024/03/26 03:04:59;;;;;;;4.35;1.60;;;7.60;99.90;;;;;;4962113;28;20072;-58
2024/03/26 03:07:24;;;;;;;2.50;1.40;;;7.60;99.90;;;;;;4962404;28;20058;-60
2024/03/26 03:09:50;;;;;;;5.30;2.35;;;7.60;99.90;;;;;;4964717;28;20055;-60
2024/03/26 03:12:16;;;;;;;5.30;1.95;;;7.60;99.90;;;;;;4970708;28;20535;-60
2024/03/26 03:14:42;;;;;;;4.07;1.45;;;7.60;99.90;;;;;;4966889;28;20133;-60
2024/03/26 03:17:07;;;;;;;4.00;1.60;;;7.50;99.90;;;;;;4964250;28;20058;-60
2024/03/26 03:19:33;;;;;;;4.60;1.73;;;7.50;99.90;;;;;;4970946;28;20590;-59
2024/03/26 03:21:59;;;;;;;2.15;1.50;;;7.50;99.90;;;;;;4968577;28;20065;-58
2024/03/26 03:24:25;;;;;;;4.55;1.83;;;7.50;99.90;;;;;;4961540;28;20046;-59
2024/03/26 03:26:50;;;;;;;2.08;1.50;;;7.60;99.90;;;;;;4962325;28;20058;-60
2024/03/26 03:29:16;;;;;;;6.93;1.90;;;7.60;99.90;;;;;;4962726;28;20101;-60
2024/03/26 03:31:42;;;;;;;8.98;2.28;;;7.60;99.90;;;;;;4960939;28;20054;-59
2024/03/26 03:34:08;;;;;;;2.15;1.90;;;7.60;99.90;;;;;;4965018;28;20062;-60
2024/03/26 03:36:34;;;;;;;4.22;1.88;;;7.60;99.90;;;;;;4961227;28;20097;-60
2024/03/26 03:39:00;;;;;;;7.35;2.25;;;7.60;99.90;;;;;;4959910;28;20487;-60
2024/03/26 03:41:26;;;;;;;2.53;2.33;;;7.70;99.90;;;;;;4962688;28;20165;-60
2024/03/26 03:43:52;;;;;;;2.88;2.20;;;7.70;99.90;;;;;;4963564;28;20562;-60
2024/03/26 03:46:17;;;;;;;3.15;2.03;;;7.70;99.90;;;;;;4944902;28;20089;-59
2024/03/26 03:48:43;;;;;;;2.17;1.40;;;7.70;99.90;;;;;;4957704;28;20230;-59
2024/03/26 03:51:09;;;;;;;2.35;1.40;;;7.70;99.90;;;;;;4963169;28;20055;-60
2024/03/26 03:53:34;;;;;;;3.33;1.70;;;7.70;99.90;;;;;;4960420;28;20581;-60
2024/03/26 03:56:00;;;;;;;3.83;1.25;;;7.70;99.90;;;;;;4961626;28;20136;-60
2024/03/26 03:58:26;;;;;;;3.78;1.40;;;7.70;99.90;;;;;;4965663;28;20562;-60
2024/03/26 04:00:52;;;;;;;1.10;1.00;;;7.70;99.90;;;;;;4961253;28;20055;-59
2024/03/26 04:03:17;;;;;;;2.15;1.30;;;7.70;99.90;;;;;;4957671;28;20054;-60
2024/03/26 04:05:43;;;;;;;3.35;1.40;;;7.80;99.90;;;;;;4965015;28;20054;-59
2024/03/26 04:08:09;;;;;;;3.92;1.20;;;7.80;99.90;;;;;;4959123;28;20062;-59
2024/03/26 04:10:40;;;;;;;3.95;1.50;;;7.80;99.90;;;;;;4946823;28;20058;-60
2024/03/26 04:13:05;;;;;;;2.30;1.40;;;7.90;99.90;;;;;;4964189;28;20065;-60
2024/03/26 04:15:31;;;;;;;2.40;1.23;;;7.90;99.90;;;;;;4967958;28;20411;-60
2024/03/26 04:17:57;;;;;;;1.63;1.20;;;7.90;99.90;;;;;;4963051;28;20055;-60
2024/03/26 04:20:23;;;;;;;2.45;1.30;;;7.90;99.90;;;;;;4968527;28;20141;-60
2024/03/26 04:22:49;;;;;;;2.80;1.42;;;7.90;99.90;;;;;;4975335;28;20063;-60
2024/03/26 04:25:15;;;;;;;1.38;1.23;;;7.90;99.90;;;;;;4957393;28;20133;-59
2024/03/26 04:27:41;;;;;;;2.08;1.30;;;7.90;99.90;;;;;;4967185;28;20690;-60
2024/03/26 04:30:08;;;;;;;3.20;1.52;;;7.80;99.90;;;;;;4955184;28;20047;-60
2024/03/26 04:32:35;;;;;;;1.38;1.27;;;7.90;99.90;;;;;;4960410;28;20046;-60
2024/03/26 04:35:01;;;;;;;2.83;1.35;;;7.90;99.90;;;;;;4959658;28;20168;-60
2024/03/26 04:37:27;;;;;;;3.42;1.38;;;7.90;99.90;;;;;;4977034;28;20661;-60
2024/03/26 04:39:53;;;;;;;3.25;1.42;;;7.90;99.90;;;;;;4966038;28;20058;-58
2024/03/26 04:42:20;;;;;;;3.13;1.92;;;7.90;99.90;;;;;;4964393;28;20065;-60
2024/03/26 04:44:46;;;;;;;5.47;1.90;;;7.90;99.90;;;;;;4965371;28;20507;-60
2024/03/26 04:47:12;;;;;;;2.88;1.90;;;7.90;99.90;;;;;;4959173;28;20096;-59
2024/03/26 04:49:38;;;;;;;3.65;1.75;;;7.90;99.90;;;;;;4964415;28;20099;-60
2024/03/26 04:52:04;;;;;;;2.30;1.67;;;7.90;99.90;;;;;;4959401;28;20050;-60
2024/03/26 04:54:30;;;;;;;3.13;1.73;;;7.90;99.90;;;;;;4958441;28;20487;-60
2024/03/26 04:56:55;;;;;;;5.38;1.75;;;7.90;99.90;;;;;;4956991;28;20143;-60
2024/03/26 04:59:21;;;;;;;3.80;1.58;;;7.90;99.90;;;;;;4962154;28;20094;-60
2024/03/26 05:01:48;;;;;;;1.80;1.33;;;7.90;99.90;;;;;;4966998;28;20523;-60
2024/03/26 05:04:14;;;;;;;4.30;1.48;;;7.90;99.90;;;;;;4961600;28;20050;-60
2024/03/26 05:06:40;;;;;;;3.67;1.70;;;7.90;99.90;;;;;;4986589;28;20081;-59
2024/03/26 05:09:06;;;;;;;2.42;1.70;;;7.90;99.90;;;;;;4959286;28;20059;-60
2024/03/26 05:11:31;;;;;;;3.00;2.00;;;7.80;99.90;;;;;;4976121;28;20047;-60
2024/03/26 05:13:57;;;;;;;4.97;1.88;;;7.90;99.90;;;;;;4963372;28;20156;-60
2024/03/26 05:16:23;;;;;;;3.28;1.95;;;7.80;99.90;;;;;;4963140;28;20488;-60
2024/03/26 05:18:49;;;;;;;2.40;1.60;;;7.80;99.90;;;;;;4959502;28;20053;-59
2024/03/26 05:21:15;;;;;;;2.50;1.70;;;7.80;99.90;;;;;;4959861;28;20058;-60
2024/03/26 05:23:42;;;;;;;4.95;2.45;;;7.70;99.90;;;;;;4959031;28;20057;-59
2024/03/26 05:26:08;;;;;;;6.88;4.30;;;7.60;99.90;;;;;;4965305;28;20125;-60
2024/03/26 05:28:34;;;;;;;4.45;2.80;;;7.40;99.90;;;;;;4959298;28;20062;-60
2024/03/26 05:31:16;;;;;;;5.32;3.08;;;7.40;99.90;;;;;;4958042;28;20420;-58
2024/03/26 05:33:42;;;;;;;7.28;3.08;;;7.30;99.90;;;;;;4961841;28;20073;-60
2024/03/26 05:36:08;;;;;;;6.75;2.85;;;7.40;99.90;;;;;;4960255;28;20431;-60
2024/03/26 05:38:34;;;;;;;8.00;3.00;;;7.30;99.90;;;;;;4957149;28;20063;-57
2024/03/26 05:41:00;;;;;;;6.63;3.15;;;7.30;99.90;;;;;;4959557;28;20685;-60
2024/03/26 05:43:26;;;;;;;5.88;3.20;;;7.30;99.90;;;;;;4962900;28;20042;-60
2024/03/26 05:45:51;;;;;;;4.22;2.67;;;7.20;99.90;;;;;;4967774;28;20069;-59
2024/03/26 05:48:17;;;;;;;4.57;2.42;;;7.20;99.90;;;;;;4973038;28;20507;-60
2024/03/26 05:50:43;;;;;;;6.03;2.20;;;7.20;99.90;;;;;;4956597;28;20482;-60
2024/03/26 05:53:09;;;;;;;3.33;1.83;;;7.20;99.90;;;;;;4963936;28;20090;-60
2024/03/26 05:55:35;;;;;;;3.30;2.00;;;7.20;99.90;;;;;;4959992;28;20454;-58
2024/03/26 05:58:00;;;;;;;5.03;2.03;;;7.20;99.90;;;;;;4957583;28;20675;-59
2024/03/26 06:00:26;;;;;;;4.35;1.80;;;7.20;99.90;;;;;;4954892;28;20069;-59
2024/03/26 06:02:52;;;;;;;8.00;2.15;;;7.20;99.90;;;;;;4957043;28;20120;-59
2024/03/26 06:05:18;;;;;;;5.38;2.08;;;7.30;99.90;;;;;;4961676;28;20478;-60
2024/03/26 06:07:43;;;;;;;4.78;1.90;;;7.40;99.90;;;;;;4959337;28;20058;-60
2024/03/26 06:10:09;;;;;;;4.63;1.60;;;7.40;99.90;;;;;;4967422;28;20054;-58
2024/03/26 06:12:36;;;;;;;4.40;1.90;;;7.50;99.90;;;;;;4962109;28;20054;-60
2024/03/26 06:15:02;;;;;;;4.18;2.00;;;7.50;99.90;;;;;;4958844;28;20066;-60
2024/03/26 06:17:28;;;;;;;2.45;1.42;;;7.60;99.90;;;;;;4974769;28;20475;-59
2024/03/26 06:19:54;;;;;;;5.03;1.25;;;7.70;99.90;;;;;;4964913;28;20062;-60
2024/03/26 06:22:19;;;;;;;3.35;1.60;;;7.80;99.90;;;;;;4959554;28;20047;-60
2024/03/26 06:24:45;;;;;;;2.60;1.20;;;7.90;99.90;;;;;;4965276;28;20066;-60
2024/03/26 06:27:11;;;;;;;4.70;1.50;;;8.00;99.90;;;;;;4957056;28;20054;-60
2024/03/26 06:29:37;;;;;;;3.03;1.88;;;8.00;99.90;;;;;;4964941;28;20047;-60
2024/03/26 06:32:03;;;;;;;4.03;2.80;;;8.10;99.90;;;;;;4963304;28;20127;-59
2024/03/26 06:34:29;;;;;;;6.40;3.47;;;8.30;99.90;;;;;;4967101;28;20051;-60
2024/03/26 06:36:54;;;;;;;3.38;2.00;;;8.30;99.90;;;;;;4965897;28;20053;-60
2024/03/26 06:39:21;;;;;;;3.90;1.50;;;8.40;99.90;;;;;;4969716;28;20046;-60
2024/03/26 06:41:47;;;;;;;2.50;1.50;;;8.50;99.90;;;;;;4957062;28;20690;-60
2024/03/26 06:44:12;;;;;;;4.50;2.10;;;8.60;99.90;;;;;;4960473;28;20043;-60
2024/03/26 06:46:39;;;;;;;7.78;1.70;;;8.70;99.90;;;;;;4973721;28;20089;-60
2024/03/26 06:49:05;;;;;;;3.35;1.63;;;8.80;99.90;;;;;;4961931;28;20062;-60
2024/03/26 06:51:30;;;;;;;5.53;2.72;;;8.80;99.90;;;;;;4959075;28;20416;-59
2024/03/26 06:53:56;;;;;;;6.00;3.65;;;9.00;99.90;;;;;;4960769;28;20488;-60
2024/03/26 06:56:23;;;;;;;4.63;1.60;;;9.20;99.90;;;;;;4972230;28;20058;-60
2024/03/26 06:58:49;;;;;;;2.20;1.33;;;9.30;99.90;;;;;;4956628;28;20059;-60
2024/03/26 07:01:15;;;;;;;3.33;1.35;;;9.50;99.90;;;;;;4959307;28;20051;-60
2024/03/26 07:03:41;;;;;;;3.50;1.70;;;9.80;99.90;;;;;;4970126;28;20061;-60
2024/03/26 07:06:09;;;;;;;2.70;1.33;;;10.00;99.90;;;;;;4960364;28;20058;-61
2024/03/26 07:08:35;;;;;;;4.63;1.58;;;10.30;99.90;;;;;;4959258;28;20062;-60
2024/03/26 07:11:03;;;;;;;2.88;0.98;;;10.50;99.90;;;;;;4965653;28;20053;-59
2024/03/26 07:13:29;;;;;;;2.35;1.20;;;10.80;99.90;;;;;;4957297;28;20047;-58
2024/03/26 07:15:55;;;;;;;2.05;1.13;;;11.00;99.90;;;;;;4978973;28;20050;-57
2024/03/26 07:18:21;;;;;;;1.52;1.20;;;11.00;99.90;;;;;;4966163;28;20426;-59
2024/03/26 07:20:47;;;;;;;3.05;1.17;;;11.20;99.90;;;;;;4967924;28;20058;-54
2024/03/26 07:23:13;;;;;;;1.63;1.20;;;11.10;99.90;;;;;;4962622;28;20133;-58
2024/03/26 07:25:39;;;;;;;4.03;1.27;;;11.20;99.90;;;;;;4958535;28;20459;-58
2024/03/26 07:28:05;;;;;;;1.77;1.15;;;11.30;99.90;;;;;;4963016;28;20055;-58
2024/03/26 07:30:31;;;;;;;5.03;1.48;;;11.00;99.90;;;;;;4979885;28;20043;-57
2024/03/26 07:32:57;;;;;;;1.73;1.27;;;10.70;99.90;;;;;;4964374;28;20047;-61
2024/03/26 07:35:24;;;;;;;3.28;1.23;;;10.70;99.90;;;;;;4960305;28;20042;-59
2024/03/26 07:37:51;;;;;;;1.45;0.98;;;10.50;99.90;;;;;;4959871;28;20067;-61
2024/03/26 07:40:17;;;;;;;6.47;2.42;;;10.40;99.90;;;;;;4967416;28;20046;-60
2024/03/26 07:42:43;;;;;;;2.53;1.63;;;10.40;99.90;;;;;;4966627;28;20058;-58
2024/03/26 07:45:09;;;;;;;2.88;1.50;;;10.40;99.90;;;;;;4960001;28;20533;-59
2024/03/26 07:47:36;;;;;;;2.15;1.52;;;10.20;99.90;;;;;;4964485;28;20560;-59
2024/03/26 07:50:01;;;;;;;6.18;2.42;;;10.20;99.90;;;;;;4961921;28;20053;-58
2024/03/26 07:52:27;;;;;;;3.45;1.40;;;10.10;99.90;;;;;;4946360;28;20566;-63
2024/03/26 07:54:53;;;;;;;2.95;1.40;;;10.10;99.90;;;;;;4965990;28;20611;-62
2024/03/26 07:57:19;;;;;;;3.42;1.23;;;10.10;99.90;;;;;;4964440;28;20056;-62
2024/03/26 07:59:45;;;;;;;3.88;1.25;;;10.10;99.90;;;;;;4979145;28;20065;-61
2024/03/26 08:02:11;;;;;;;3.45;1.20;;;10.20;99.90;;;;;;4964314;28;20065;-61
2024/03/26 08:04:38;;;;;;;4.30;1.60;;;10.20;99.90;;;;;;4957344;28;20054;-63
2024/03/26 08:07:04;;;;;;;5.65;1.55;;;10.30;99.90;;;;;;4957604;28;20090;-62
2024/03/26 08:09:30;;;;;;;2.13;1.30;;;10.40;99.90;;;;;;4963756;28;20455;-62
2024/03/26 08:11:56;;;;;;;2.55;1.50;;;10.60;99.90;;;;;;4962904;28;20098;-63
2024/03/26 08:14:21;;;;;;;2.47;1.50;;;10.70;99.90;;;;;;4973738;28;20046;-63
2024/03/26 08:16:47;;;;;;;1.30;0.95;;;10.90;99.90;;;;;;4963020;28;20405;-63
2024/03/26 08:19:13;;;;;;;3.22;1.27;;;10.90;99.90;;;;;;4963735;28;20055;-64
2024/03/26 08:21:38;;;;;;;1.80;0.93;;;11.10;99.90;;;;;;4965818;28;20059;-62
2024/03/26 08:24:04;;;;;;;5.28;1.48;;;11.10;99.90;;;;;;4963419;28;20049;-62
2024/03/26 08:26:30;;;;;;;3.78;1.40;;;11.20;99.90;;;;;;4957615;28;20061;-62
2024/03/26 08:28:56;;;;;;;2.72;1.58;;;11.40;99.90;;;;;;4967840;28;20043;-62
2024/03/26 08:31:22;;;;;;;4.45;1.35;;;11.50;99.90;;;;;;4962611;28;20542;-63
2024/03/26 08:33:48;;;;;;;3.72;1.75;;;11.40;99.90;;;;;;4984617;28;20487;-62
2024/03/26 08:36:13;;;;;;;5.05;2.38;;;11.40;99.90;;;;;;4964284;28;20136;-62
2024/03/26 08:38:39;;;;;;;5.38;2.00;;;11.40;99.90;;;;;;4961337;28;20054;-61
2024/03/26 08:41:05;;;;;;;6.45;2.20;;;11.40;99.90;;;;;;4958392;28;20663;-62
2024/03/26 08:43:31;;;;;;;6.88;1.88;;;11.40;99.90;;;;;;4960236;28;20047;-62
2024/03/26 08:45:57;;;;;;;3.10;1.38;;;11.40;99.90;;;;;;4956700;28;20050;-61
2024/03/26 08:48:23;;;;;;;4.10;1.48;;;11.50;99.90;;;;;;4975385;28;20411;-61
2024/03/26 08:50:48;;;;;;;4.55;1.45;;;11.60;99.90;;;;;;4968888;28;20078;-61
2024/03/26 08:53:14;;;;;;;4.95;1.35;;;11.80;99.90;;;;;;4963743;28;20427;-61
2024/03/26 08:55:40;;;;;;;5.65;1.13;;;12.00;99.90;;;;;;4950784;28;20563;-62
2024/03/26 08:58:06;;;;;;;1.60;1.30;;;12.10;99.90;;;;;;4964176;28;20054;-60
2024/03/26 09:00:32;;;;;;;6.88;1.25;;;12.10;99.90;;;;;;4961204;28;20042;-62
2024/03/26 09:02:58;;;;;;;5.68;1.42;;;12.20;99.90;;;;;;4960225;28;20062;-61
2024/03/26 09:05:24;;;;;;;3.40;1.70;;;12.30;99.90;;;;;;4956397;28;20065;-61
2024/03/26 09:07:50;;;;;;;4.32;1.30;;;12.30;99.90;;;;;;4962793;28;20152;-61
2024/03/26 09:10:15;;;;;;;2.85;1.55;;;12.10;99.90;;;;;;4963986;28;20078;-61
2024/03/26 09:12:41;;;;;;;2.80;1.60;;;12.00;99.90;;;;;;4964325;28;20478;-62
2024/03/26 09:15:10;;;;;;;5.63;2.00;;;12.00;99.90;;;;;;4962870;28;20523;-62
2024/03/26 09:17:35;;;;;;;1.73;1.52;;;12.00;99.90;;;;;;4978170;28;20046;-61
2024/03/26 09:20:01;;;;;;;2.88;1.73;;;11.90;99.90;;;;;;4961328;28;20068;-62
2024/03/26 09:22:27;;;;;;;3.15;1.70;;;11.90;99.90;;;;;;4957466;28;20051;-62
2024/03/26 09:24:53;;;;;;;4.88;2.03;;;11.80;99.90;;;;;;4965945;28;20510;-62
2024/03/26 09:27:18;;;;;;;5.45;2.10;;;11.70;99.90;;;;;;4965604;28;20215;-62
2024/03/26 09:29:44;;;;;;;3.20;1.88;;;11.60;99.90;;;;;;4962735;28;20050;-61
2024/03/26 09:32:10;;;;;;;3.53;1.45;;;11.70;99.90;;;;;;4953652;28;20089;-61
2024/03/26 09:34:36;;;;;;;3.40;1.60;;;11.70;99.90;;;;;;4960520;28;20055;-61
2024/03/26 09:37:02;;;;;;;3.55;1.30;;;11.70;99.90;;;;;;4961413;28;20101;-61
2024/03/26 09:39:28;;;;;;;2.10;1.45;;;11.80;99.90;;;;;;4958199;28;20066;-61
2024/03/26 09:42:01;;;;;;;4.40;1.50;;;11.80;99.90;;;;;;4958057;28;20046;-62
2024/03/26 09:44:29;;;;;;;2.53;1.33;;;11.70;99.90;;;;;;4962845;28;20143;-63
2024/03/26 09:46:56;;;;;;;4.80;1.60;;;11.70;99.90;;;;;;4956136;28;20051;-59
2024/03/26 09:49:25;;;;;;;3.10;1.80;;;11.80;99.90;;;;;;4960075;28;20566;-58
2024/03/26 09:51:53;;;;;;;3.45;1.27;;;11.80;99.90;;;;;;4977295;28;20133;-61
2024/03/26 09:54:19;;;;;;;4.20;1.67;;;11.80;99.90;;;;;;4975736;28;20467;-61
2024/03/26 09:56:46;;;;;;;2.65;1.60;;;11.80;99.90;;;;;;4963607;28;20056;-59
2024/03/26 09:59:13;;;;;;;4.38;1.60;;;11.90;99.90;;;;;;4954640;28;20066;-61
2024/03/26 10:01:39;;;;;;;5.32;1.65;;;12.00;99.90;;;;;;4961456;28;20073;-61
2024/03/26 10:04:05;;;;;;;5.55;1.25;;;12.00;99.90;;;;;;4954876;28;20059;-61
2024/03/26 10:06:32;;;;;;;2.80;1.45;;;12.00;99.90;;;;;;4956254;28;20058;-60
2024/03/26 10:08:58;;;;;;;3.08;1.30;;;12.00;99.90;;;;;;4961595;28;20058;-61
2024/03/26 10:11:25;;;;;;;2.60;1.63;;;12.00;99.90;;;;;;4961808;28;20622;-61
2024/03/26 10:13:52;;;;;;;2.85;1.73;;;12.10;99.90;;;;;;4961382;28;20619;-61
2024/03/26 10:16:18;;;;;;;3.05;1.65;;;12.10;99.90;;;;;;4957093;28;20054;-61
2024/03/26 10:18:45;;;;;;;3.58;1.52;;;12.10;99.90;;;;;;4964724;28;20061;-61
2024/03/26 10:21:11;;;;;;;2.97;1.40;;;12.20;99.90;;;;;;4961505;28;20070;-61
2024/03/26 10:23:37;;;;;;;4.57;2.58;;;12.10;99.90;;;;;;4970950;28;20092;-61
2024/03/26 10:26:03;;;;;;;6.65;1.50;;;12.20;99.90;;;;;;4966463;28;20054;-62
2024/03/26 10:28:29;;;;;;;4.90;1.42;;;12.20;99.90;;;;;;4957426;28;20051;-62
2024/03/26 10:30:55;;;;;;;5.63;2.17;;;12.30;99.90;;;;;;4960766;28;20181;-62
2024/03/26 10:33:21;;;;;;;5.13;2.42;;;12.30;99.90;;;;;;4959868;28;20082;-62
2024/03/26 10:35:54;;;;;;;9.80;4.55;;;12.40;99.90;;;;;;4956477;28;20611;-60
2024/03/26 10:38:21;;;;;;;6.13;2.35;;;12.50;99.90;;;;;;4956415;28;20059;-61
2024/03/26 10:41:34;;;;;;;4.38;2.00;;;12.40;99.90;;;;;;4971635;28;20061;-61
2024/03/26 10:44:01;;;;;;;5.25;2.50;;;12.40;99.90;;;;;;4962844;28;20062;-61
2024/03/26 10:46:30;;;;;;;3.42;1.88;;;12.50;99.90;;;;;;4969699;28;20140;-62
2024/03/26 10:49:01;;;;;;;2.92;1.70;;;12.70;99.90;;;;;;4957643;28;20566;-60
2024/03/26 10:51:29;;;;;;;3.63;1.83;;;13.00;99.90;;;;;;4960854;28;20508;-60
2024/03/26 10:53:59;;;;;;;3.75;2.03;;;13.30;99.90;;;;;;4964515;28;20151;-61
2024/03/26 10:56:33;;;;;;;4.85;2.30;;;13.30;99.90;;;;;;4965478;28;20042;-61
2024/03/26 10:58:59;;;;;;;4.18;2.00;;;13.30;99.90;;;;;;4959997;28;20055;-62
2024/03/26 11:01:27;;;;;;;6.25;1.98;;;13.10;99.90;;;;;;4958694;28;20062;-61
2024/03/26 11:03:53;;;;;;;5.88;2.45;;;13.10;99.90;;;;;;4963791;28;20046;-62
2024/03/26 11:06:21;;;;;;;4.30;2.28;;;13.00;99.90;;;;;;4980072;28;20108;-61
2024/03/26 11:08:46;;;;;;;4.40;2.08;;;13.20;99.90;;;;;;4965165;28;20054;-60
2024/03/26 11:11:15;;;;;;;4.40;2.20;;;13.30;99.90;;;;;;4965471;28;20419;-60
2024/03/26 11:13:41;;;;;;;3.58;2.05;;;13.40;99.90;;;;;;4963942;28;20553;-60
2024/03/26 11:16:07;;;;;;;4.72;2.97;;;13.60;99.90;;;;;;4958814;28;20122;-61
2024/03/26 11:18:34;;;;;;;4.97;2.25;;;13.80;99.90;;;;;;4965380;28;20054;-60
2024/03/26 11:21:08;;;;;;;7.00;2.10;;;14.20;99.90;;;;;;4966804;28;20058;-61
2024/03/26 11:23:42;;;;;;;4.80;1.98;;;14.50;99.90;;;;;;4959497;28;20503;-61
2024/03/26 11:26:18;;;;;;;3.53;2.03;;;14.70;99.90;;;;;;4962411;28;20618;-61
2024/03/26 11:28:45;;;;;;;6.03;2.15;;;14.80;99.90;;;;;;4964116;28;20070;-61
2024/03/26 11:31:11;;;;;;;1.83;1.60;;;14.90;99.90;;;;;;4963312;28;20478;-61
2024/03/26 11:33:37;;;;;;;4.20;1.92;;;15.00;99.90;;;;;;4961596;28;20062;-62
2024/03/26 11:36:04;;;;;;;4.05;1.90;;;15.40;99.90;;;;;;4963972;28;20137;-61
2024/03/26 11:38:30;;;;;;;7.78;2.10;;;15.80;99.90;;;;;;4961295;28;20047;-61
2024/03/26 11:40:57;;;;;;;5.13;1.85;;;16.00;99.90;;;;;;4977174;28;20050;-60
2024/03/26 11:43:23;;;;;;;3.92;2.17;;;16.30;99.90;;;;;;4959465;28;20476;-61
2024/03/26 11:45:49;;;;;;;7.13;2.15;;;16.30;99.90;;;;;;4962857;28;20058;-61
2024/03/26 11:48:18;;;;;;;4.50;1.85;;;16.10;99.90;;;;;;4966729;28;20058;-61
2024/03/26 11:50:46;;;;;;;5.35;2.00;;;15.60;99.90;;;;;;4975362;28;20098;-61
2024/03/26 11:53:12;;;;;;;3.65;1.83;;;15.10;99.90;;;;;;4966600;28;20096;-61
2024/03/26 11:55:39;;;;;;;5.53;1.85;;;14.90;99.90;;;;;;4961344;28;20476;-61
2024/03/26 11:58:07;;;;;;;3.65;2.38;;;14.80;99.90;;;;;;4964812;28;20459;-61
2024/03/26 12:00:35;;;;;;;4.35;2.20;;;14.70;99.90;;;;;;4960595;28;20070;-62
2024/03/26 12:03:01;;;;;;;5.30;2.33;;;14.50;99.90;;;;;;4974560;28;20510;-61
2024/03/26 12:05:27;;;;;;;3.90;2.00;;;14.40;99.90;;;;;;4962158;28;20054;-62
2024/03/26 12:07:53;;;;;;;8.05;2.22;;;14.20;99.90;;;;;;4959762;28;20096;-63
2024/03/26 12:10:19;;;;;;;3.65;2.15;;;14.10;99.90;;;;;;4960992;28;20038;-62
2024/03/26 12:12:45;;;;;;;6.38;2.33;;;14.10;99.90;;;;;;4964802;28;20439;-61
2024/03/26 12:15:12;;;;;;;3.80;2.22;;;14.10;99.90;;;;;;4959186;28;20731;-62
2024/03/26 12:17:42;;;;;;;4.82;2.55;;;14.10;99.90;;;;;;4958334;28;20047;-62
2024/03/26 12:20:12;;;;;;;;;;;14.00;99.90;;;;;;4965859;28;20054;-62
2024/03/26 12:22:40;;;;;;;5.97;2.38;;;14.00;99.90;;;;;;4961412;28;19929;-61
2024/03/26 12:25:07;;;;;;;7.82;2.40;;;14.00;99.90;;;;;;4959716;28;20067;-62
2024/03/26 12:27:33;;;;;;;3.55;1.98;;;14.10;99.90;;;;;;4974460;28;20443;-62
2024/03/26 12:29:59;;;;;;;4.85;2.33;;;13.90;99.90;;;;;;4961184;28;20050;-62
2024/03/26 12:32:28;;;;;;;6.25;2.00;;;13.90;99.90;;;;;;4967604;28;20200;-63
2024/03/26 12:34:54;;;;;;;5.10;2.10;;;13.80;99.90;;;;;;4961887;28;20101;-61
2024/03/26 12:37:20;;;;;;;2.70;1.73;;;13.90;99.90;;;;;;4962450;28;20059;-63
2024/03/26 12:39:45;;;;;;;5.38;2.17;;;13.90;99.90;;;;;;4966538;28;20621;-63
2024/03/26 12:42:11;;;;;;;8.55;3.10;;;13.80;99.90;;;;;;4967300;28;20054;-63
2024/03/26 12:44:37;;;;;;;9.88;2.50;;;13.90;99.90;;;;;;4959776;28;20054;-63
2024/03/26 12:47:03;;;;;;;3.28;2.08;;;14.00;99.90;;;;;;4965193;28;20438;-63
2024/03/26 12:49:28;;;;;;;6.78;2.30;;;14.10;99.90;;;;;;4969521;28;20089;-63